createdAt,value
2023-02-27T09:13:05.057Z,24.48
2023-02-27T09:15:34.375Z,19.92
2023-02-27T09:18:03.167Z,24.00
2023-02-27T09:20:35.623Z,22.85
2023-02-27T09:23:03.167Z,21.48
2023-02-27T09:25:29.958Z,18.42
2023-02-27T09:27:56.625Z,18.48
2023-02-27T09:30:23.410Z,18.60
2023-02-27T09:32:50.783Z,21.23
2023-02-27T09:35:20.160Z,18.25
2023-02-27T09:37:46.952Z,16.10
2023-02-27T09:40:21.366Z,17.08
2023-02-27T09:42:48.599Z,18.75
2023-02-27T09:45:23.413Z,15.65
2023-02-27T09:48:01.847Z,15.43
2023-02-27T09:50:34.772Z,12.23
2023-02-27T09:53:01.472Z,14.20
2023-02-27T09:55:31.399Z,14.20
2023-02-27T09:58:19.879Z,16.00
2023-02-27T10:00:52.998Z,11.18
2023-02-27T10:03:37.926Z,9.02
2023-02-27T10:06:20.148Z,13.95
2023-02-27T10:08:55.884Z,9.90
2023-02-27T10:11:37.891Z,9.40
2023-02-27T10:14:25.989Z,11.18
2023-02-27T10:16:52.880Z,9.93
2023-02-27T10:19:26.558Z,9.88
2023-02-27T10:21:53.237Z,7.43
2023-02-27T10:24:28.330Z,9.60
2023-02-27T10:26:59.339Z,10.38
2023-02-27T10:29:41.610Z,7.80
2023-02-27T10:32:31.763Z,7.32
2023-02-27T10:35:27.961Z,9.02
2023-02-27T10:38:06.405Z,9.15
2023-02-27T10:40:33.062Z,6.70
2023-02-27T10:43:01.338Z,10.57
2023-02-27T10:45:28.096Z,5.73
2023-02-27T10:47:55.428Z,7.38
2023-02-27T10:50:26.410Z,7.07
2023-02-27T10:52:57.949Z,5.50
2023-02-27T10:55:27.175Z,5.03
2023-02-27T11:00:31.497Z,6.60
2023-02-27T11:02:58.230Z,8.65
2023-02-27T11:05:26.222Z,5.60
2023-02-27T11:07:52.903Z,4.95
2023-02-27T11:10:22.199Z,5.90
2023-02-27T11:13:00.530Z,7.57
2023-02-27T11:15:38.085Z,4.10
2023-02-27T11:18:24.764Z,4.95
2023-02-27T11:20:51.454Z,5.53
2023-02-27T11:23:19.476Z,7.13
2023-02-27T11:25:46.370Z,6.07
2023-02-27T11:28:29.765Z,5.40
2023-02-27T11:31:07.411Z,3.10
2023-02-27T11:33:36.201Z,4.55
2023-02-27T11:36:03.603Z,6.65
2023-02-27T11:38:30.511Z,3.80
2023-02-27T11:41:01.969Z,4.53
2023-02-27T11:43:31.330Z,4.18
2023-02-27T11:46:37.010Z,2.95
2023-02-27T11:49:10.191Z,2.85
2023-02-27T11:51:42.126Z,4.93
2023-02-27T14:17:38.542Z,8.13
2023-02-27T14:20:15.528Z,5.82
2023-02-27T14:23:21.381Z,3.78
2023-02-27T14:25:52.202Z,9.27
2023-02-27T14:28:43.512Z,4.60
2023-02-27T14:31:33.936Z,4.57
2023-02-27T14:34:05.319Z,6.32
2023-02-27T14:36:46.877Z,4.97
2023-02-27T14:39:23.466Z,3.30
2023-02-27T14:42:47.695Z,2.38
2023-02-27T14:45:17.787Z,6.07
2023-02-27T14:47:45.862Z,6.25
2023-02-27T14:50:28.609Z,4.05
2023-02-27T14:52:55.399Z,3.75
2023-02-27T14:55:28.046Z,6.97
2023-02-27T14:58:09.097Z,9.15
2023-02-27T15:00:41.298Z,4.88
2023-02-27T15:03:19.755Z,6.75
2023-02-27T15:05:47.551Z,6.78
2023-02-27T15:08:19.792Z,8.32
2023-02-27T15:10:46.857Z,5.28
2023-02-27T15:13:25.663Z,9.13
2023-02-27T15:16:00.024Z,9.83
2023-02-27T15:18:28.947Z,8.52
2023-02-27T15:21:01.174Z,4.63
2023-02-27T15:23:28.544Z,5.95
2023-02-27T15:25:58.346Z,7.60
2023-02-27T15:28:27.763Z,7.25
2023-02-27T15:30:55.670Z,5.40
2023-02-27T15:33:30.194Z,3.38
2023-02-27T15:35:57.487Z,2.60
2023-02-27T15:38:28.320Z,4.60
2023-02-27T15:40:55.611Z,4.32
2023-02-27T15:43:22.476Z,4.13
2023-02-27T15:45:49.383Z,7.75
2023-02-27T15:48:16.531Z,6.05
2023-02-27T15:50:46.757Z,3.97
2023-02-27T15:53:17.825Z,4.32
2023-02-27T15:55:50.229Z,7.25
2023-02-27T15:58:34.921Z,5.00
2023-02-27T16:01:09.353Z,7.22
2023-02-27T16:03:44.285Z,7.57
2023-02-27T16:06:20.629Z,5.68
2023-02-27T16:08:52.948Z,4.95
2023-02-27T16:11:24.452Z,6.03
2023-02-27T16:13:52.239Z,4.93
2023-02-27T16:16:24.915Z,13.27
2023-02-27T16:18:53.386Z,4.07
2023-02-27T16:21:21.874Z,8.77
2023-02-27T16:23:48.883Z,2.67
2023-02-27T16:26:37.071Z,8.90
2023-02-27T16:29:18.599Z,4.07
2023-02-27T16:31:53.684Z,8.68
2023-02-27T16:34:48.568Z,5.13
2023-02-27T16:37:48.164Z,2.45
2023-02-27T16:40:23.625Z,3.10
2023-02-27T16:42:50.682Z,6.03
2023-02-27T16:45:25.120Z,7.40
2023-02-27T16:47:53.731Z,5.35
2023-02-27T16:50:32.634Z,3.03
2023-02-27T16:53:02.438Z,4.75
2023-02-27T16:55:29.175Z,4.00
2023-02-27T16:57:56.574Z,3.75
2023-02-27T17:00:23.423Z,5.13
2023-02-27T17:02:51.149Z,3.45
2023-02-27T17:05:18.295Z,6.80
2023-02-27T17:07:45.110Z,6.50
2023-02-27T17:10:15.829Z,8.95
2023-02-27T17:12:44.077Z,5.63
2023-02-27T17:15:11.192Z,7.88
2023-02-27T17:17:37.884Z,7.40
2023-02-27T17:20:07.389Z,6.25
2023-02-27T17:22:38.046Z,6.07
2023-02-27T17:25:05.153Z,5.60
2023-02-27T17:27:32.764Z,2.75
2023-02-27T17:29:59.609Z,5.15
2023-02-27T17:32:26.445Z,5.07
2023-02-27T17:34:54.241Z,6.40
2023-02-27T17:37:21.055Z,5.63
2023-02-27T17:39:47.939Z,5.35
2023-02-27T17:42:18.382Z,5.53
2023-02-27T17:44:48.331Z,3.10
2023-02-27T17:47:15.283Z,4.32
2023-02-27T17:49:42.461Z,9.10
2023-02-27T17:52:09.273Z,4.85
2023-02-27T17:54:36.050Z,7.40
2023-02-27T17:57:04.745Z,6.50
2023-02-27T17:59:31.734Z,8.13
2023-02-27T18:01:59.017Z,6.40
2023-02-27T18:04:25.803Z,5.72
2023-02-27T18:06:52.607Z,8.80
2023-02-27T18:09:19.406Z,9.82
2023-02-27T18:11:46.156Z,4.05
2023-02-27T18:14:13.109Z,3.95
2023-02-27T18:16:39.936Z,9.18
2023-02-27T18:19:06.782Z,7.28
2023-02-27T18:21:33.754Z,6.50
2023-02-27T18:24:00.748Z,7.65
2023-02-27T18:26:31.001Z,5.85
2023-02-27T18:29:03.745Z,7.05
2023-02-27T18:31:37.930Z,8.20
2023-02-27T18:34:04.781Z,6.20
2023-02-27T18:36:32.075Z,8.88
2023-02-27T18:38:58.990Z,4.82
2023-02-27T18:41:26.334Z,8.70
2023-02-27T18:43:53.106Z,6.47
2023-02-27T18:46:20.257Z,6.40
2023-02-27T18:48:47.234Z,3.85
2023-02-27T18:51:14.712Z,6.05
2023-02-27T18:53:44.223Z,9.05
2023-02-27T18:56:11.115Z,6.18
2023-02-27T18:58:37.990Z,6.07
2023-02-27T19:01:05.078Z,5.38
2023-02-27T19:03:32.408Z,4.47
2023-02-27T19:05:59.218Z,8.93
2023-02-27T19:08:29.057Z,3.03
2023-02-27T19:10:56.594Z,6.18
2023-02-27T19:13:23.563Z,10.05
2023-02-27T19:15:50.312Z,2.53
2023-02-27T19:18:17.137Z,6.03
2023-02-27T19:20:43.840Z,4.57
2023-02-27T19:23:11.223Z,6.03
2023-02-27T19:25:37.978Z,10.35
2023-02-27T19:28:05.444Z,4.28
2023-02-27T19:30:32.193Z,4.50
2023-02-27T19:32:59.009Z,5.43
2023-02-27T19:35:25.819Z,6.10
2023-02-27T19:37:56.957Z,5.72
2023-02-27T19:40:24.294Z,3.83
2023-02-27T19:42:51.459Z,5.50
2023-02-27T19:45:18.293Z,6.65
2023-02-27T19:47:45.358Z,4.28
2023-02-27T19:50:12.383Z,6.97
2023-02-27T19:52:39.167Z,7.78
2023-02-27T19:55:06.896Z,4.35
2023-02-27T19:57:36.992Z,3.53
2023-02-27T20:00:06.425Z,3.75
2023-02-27T20:02:33.298Z,3.83
2023-02-27T20:05:00.184Z,4.20
2023-02-27T20:07:28.992Z,6.43
2023-02-27T20:09:56.236Z,3.25
2023-02-27T20:12:23.281Z,3.17
2023-02-27T20:14:50.303Z,4.53
2023-02-27T20:17:17.052Z,3.88
2023-02-27T20:19:43.924Z,3.35
2023-02-27T20:22:13.543Z,5.32
2023-02-27T20:24:40.341Z,5.75
2023-02-27T20:27:07.328Z,5.35
2023-02-27T20:29:36.658Z,4.30
2023-02-27T20:32:04.099Z,3.22
2023-02-27T20:34:31.137Z,4.80
2023-02-27T20:36:58.077Z,5.93
2023-02-27T20:39:25.060Z,4.47
2023-02-27T20:41:51.911Z,6.32
2023-02-27T20:44:18.928Z,3.17
2023-02-27T20:46:48.899Z,4.57
2023-02-27T20:49:16.619Z,4.53
2023-02-27T20:51:43.751Z,3.05
2023-02-27T20:54:13.531Z,6.10
2023-02-27T20:59:10.820Z,2.58
2023-02-27T21:01:38.552Z,6.82
2023-02-27T21:04:05.624Z,7.25
2023-02-27T21:06:32.790Z,4.07
2023-02-27T21:09:02.521Z,3.88
2023-02-27T21:14:05.950Z,5.63
2023-02-27T21:16:32.810Z,4.28
2023-02-27T21:18:59.552Z,4.93
2023-02-27T21:21:29.555Z,4.18
2023-02-27T21:23:57.002Z,6.40
2023-02-27T21:26:25.857Z,3.90
2023-02-27T21:28:57.296Z,2.53
2023-02-27T21:31:24.955Z,4.13
2023-02-27T21:33:52.346Z,3.80
2023-02-27T21:36:24.335Z,7.35
2023-02-27T21:38:52.449Z,4.25
2023-02-27T21:41:19.176Z,3.33
2023-02-27T21:43:45.889Z,6.25
2023-02-27T21:46:12.867Z,5.57
2023-02-27T21:48:39.724Z,4.75
2023-02-27T21:51:06.752Z,3.53
2023-02-27T21:53:33.707Z,4.60
2023-02-27T21:56:08.048Z,3.47
2023-02-27T21:58:34.949Z,6.82
2023-02-27T22:01:01.632Z,5.43
2023-02-27T22:03:34.493Z,6.35
2023-02-27T22:06:02.140Z,5.15
2023-02-27T22:08:29.205Z,5.40
2023-02-27T22:10:59.897Z,4.55
2023-02-27T22:13:27.207Z,5.05
2023-02-27T22:15:54.468Z,7.28
2023-02-27T22:18:21.349Z,3.85
2023-02-27T22:20:48.170Z,5.50
2023-02-27T22:23:15.031Z,4.30
2023-02-27T22:25:41.755Z,7.03
2023-02-27T22:28:08.632Z,9.40
2023-02-27T22:30:35.657Z,4.90
2023-02-27T22:33:02.662Z,7.57
2023-02-27T22:35:29.419Z,12.15
2023-02-27T22:37:56.188Z,5.18
2023-02-27T22:40:22.885Z,4.45
2023-02-27T22:45:27.668Z,5.07
2023-02-27T22:47:54.429Z,12.65
2023-02-27T22:50:21.667Z,5.38
2023-02-27T22:52:48.452Z,6.07
2023-02-27T22:55:15.240Z,10.57
2023-02-27T22:57:42.039Z,7.88
2023-02-27T23:00:11.681Z,6.05
2023-02-27T23:02:44.424Z,7.32
2023-02-27T23:05:11.402Z,4.43
2023-02-27T23:07:38.141Z,6.88
2023-02-27T23:10:09.790Z,5.35
2023-02-27T23:12:36.806Z,8.40
2023-02-27T23:15:03.751Z,5.68
2023-02-27T23:17:33.061Z,5.10
2023-02-27T23:19:59.800Z,10.45
2023-02-27T23:22:33.672Z,5.03
2023-02-27T23:25:03.402Z,9.23
2023-02-27T23:27:30.203Z,7.38
2023-02-27T23:29:57.063Z,6.35
2023-02-27T23:32:24.113Z,9.70
2023-02-27T23:34:50.950Z,3.78
2023-02-27T23:37:17.707Z,9.38
2023-02-27T23:39:44.486Z,5.38
2023-02-27T23:42:11.261Z,7.13
2023-02-27T23:44:38.063Z,8.48
2023-02-27T23:47:04.875Z,6.60
2023-02-27T23:49:31.673Z,9.45
2023-02-27T23:51:58.572Z,8.00
2023-02-27T23:54:25.433Z,4.80
2023-02-27T23:56:52.268Z,10.95
2023-02-27T23:59:18.999Z,7.05
